Dover, FL (33527)

2:31 PM EDT on September 18, 2014 (GMT -0400)
Brandon Lakes | Change Station
CLOSE
Current Station
Personal Weather Station
Location: Valrico, FL
Elevation: 70 ft
Nearby Weather Stations

Elev 70 ft 27.96 °N, 82.27 °W | Updated 4 seconds ago

Partly Cloudy
Partly Cloudy
89.1 °F
Feels Like 96 °F
N
0.0
Wind Variable Wind from West
Gusts 0.0 mph

Today
High -- | Low -- °F
--% Chance of Precip.
Yesterday
High -- | Low -- °F
Precip. -- in
7:15 AM 7:30 PM
Waning Crescent, 25% visible
Pressure 29.94 in
Visibility 10.0 miles
Clouds Mostly Cloudy 4300 ft
Mostly Cloudy 5000 ft
Heat Index 96 °F
Dew Point 71 °F
Humidity 56%
Rainfall 0.00 in
Snow Depth Not available.
UV 7 out of 12
Pollen 6.70 out of 12
Air Quality Not available.
Flu Activity Not available.
METAR KPCM 181815Z AUTO 11004KT 10SM BKN043 BKN050 33/20 A2994 RMK AO2

More Conditions Fewer Conditions

Pressure 29.94 in
Visibility 10.0 miles
Clouds Mostly Cloudy 4300 ft
Mostly Cloudy 5000 ft
Heat Index 96 °F
Dew Point 71 °F
Humidity 56%
Rainfall 0.00 in
Snow Depth Not available.
UV 7 out of 12
Pollen 6.70 out of 12
Air Quality Not available.
Flu Activity Not available.
METAR KPCM 181815Z AUTO 11004KT 10SM BKN043 BKN050 33/20 A2994 RMK AO2

More Conditions Fewer Conditions

10-Day Weather Forecast

Almanac

Astronomy

Sep. 18, 2014 Rise Set
Actual Time 7:15 AM EDT 7:30 PM EDT
Civil Twilight 6:52 AM EDT 7:53 PM EDT
Nautical Twilight 6:24 AM EDT 8:20 PM EDT
Astronomical Twilight 5:56 AM EDT 8:48 PM EDT
Moon 2:26 AM EDT 4:02 PM EDT
Length of Visible Light 13h 01m
Length of Day
12h 14m
Tomorrow will be 1m 39s shorter.
Waning Crescent, 25% of the Moon is Illuminated
Today
Waning Crescent
Sep 24
New
Oct 1
First Quarter
Oct 8
Full
Oct 15
Last Quarter

Today's Extremes

State Highs State Lows

Community

WunderPhotos

Upload Photos

1,754,417 photos uploaded!

Nearby

Snow Depth

Station Depth Elevation
No new snow has been reported.

Earthquake Activity

City Distance Mag. Time & Date
No recent earthquake activity has been reported nearby.
Minimum magnitude displayed is 2.5.

Coastal Water Temperatures

Place Temperature
St Petersburg, FL 87.1 °F
Old Port Tampa, FL 84.9 °F

Nearby Weather Stations